sensor_id;sensor_type;location;lat;lon;timestamp;pressure;altitude;pressure_sealevel;temperature;humidity
12219;BME280;6172;42.646;23.344;2023-02-01T00:00:59;94673.44;;;-0.67;100.00
12219;BME280;6172;42.646;23.344;2023-02-01T00:03:32;94674.31;;;-0.63;100.00
12219;BME280;6172;42.646;23.344;2023-02-01T00:06:00;94664.09;;;-0.73;100.00
12219;BME280;6172;42.646;23.344;2023-02-01T00:08:28;94684.50;;;-0.69;100.00
12219;BME280;6172;42.646;23.344;2023-02-01T00:11:00;94678.47;;;-0.50;100.00
12219;BME280;6172;42.646;23.344;2023-02-01T00:13:46;94661.88;;;-0.71;100.00
12219;BME280;6172;42.646;23.344;2023-02-01T00:16:15;94668.09;;;-0.67;100.00
12219;BME280;6172;42.646;23.344;2023-02-01T00:18:42;94663.56;;;-0.51;100.00
12219;BME280;6172;42.646;23.344;2023-02-01T00:21:11;94665.03;;;-0.54;100.00
12219;BME280;6172;42.646;23.344;2023-02-01T00:23:38;94676.81;;;-0.55;100.00
12219;BME280;6172;42.646;23.344;2023-02-01T00:26:14;94658.34;;;-0.60;100.00
12219;BME280;6172;42.646;23.344;2023-02-01T00:28:46;94667.88;;;-0.47;100.00
12219;BME280;6172;42.646;23.344;2023-02-01T00:31:14;94658.59;;;-0.49;100.00
12219;BME280;6172;42.646;23.344;2023-02-01T00:33:57;94652.50;;;-0.65;100.00
12219;BME280;6172;42.646;23.344;2023-02-01T00:36:27;94646.97;;;-0.57;100.00
12219;BME280;6172;42.646;23.344;2023-02-01T00:38:59;94642.06;;;-0.82;100.00
12219;BME280;6172;42.646;23.344;2023-02-01T00:41:27;94654.78;;;-0.79;100.00
12219;BME280;6172;42.646;23.344;2023-02-01T00:43:58;94649.75;;;-0.81;100.00
12219;BME280;6172;42.646;23.344;2023-02-01T00:46:27;94642.53;;;-0.80;100.00
12219;BME280;6172;42.646;23.344;2023-02-01T00:48:56;94654.44;;;-0.78;100.00
12219;BME280;6172;42.646;23.344;2023-02-01T00:51:26;94639.38;;;-0.98;100.00
12219;BME280;6172;42.646;23.344;2023-02-01T00:53:57;94642.78;;;-0.85;100.00
12219;BME280;6172;42.646;23.344;2023-02-01T00:56:30;94630.94;;;-1.00;100.00
12219;BME280;6172;42.646;23.344;2023-02-01T00:59:03;94648.69;;;-1.07;100.00
12219;BME280;6172;42.646;23.344;2023-02-01T01:01:39;94651.81;;;-1.05;100.00
12219;BME280;6172;42.646;23.344;2023-02-01T01:04:16;94650.91;;;-1.09;100.00
12219;BME280;6172;42.646;23.344;2023-02-01T01:06:58;94645.75;;;-1.02;100.00
12219;BME280;6172;42.646;23.344;2023-02-01T01:09:25;94629.38;;;-1.28;100.00
12219;BME280;6172;42.646;23.344;2023-02-01T01:12:04;94638.28;;;-1.24;100.00
12219;BME280;6172;42.646;23.344;2023-02-01T01:14:42;94642.38;;;-0.99;100.00
12219;BME280;6172;42.646;23.344;2023-02-01T01:17:10;94649.03;;;-1.09;100.00
12219;BME280;6172;42.646;23.344;2023-02-01T01:19:38;94636.00;;;-1.10;100.00
12219;BME280;6172;42.646;23.344;2023-02-01T01:22:05;94640.22;;;-1.09;100.00
12219;BME280;6172;42.646;23.344;2023-02-01T01:24:32;94639.09;;;-1.08;100.00
12219;BME280;6172;42.646;23.344;2023-02-01T01:26:59;94646.47;;;-1.05;100.00
12219;BME280;6172;42.646;23.344;2023-02-01T01:29:33;94636.28;;;-1.00;100.00
12219;BME280;6172;42.646;23.344;2023-02-01T01:42:03;94644.06;;;-0.79;100.00
12219;BME280;6172;42.646;23.344;2023-02-01T01:44:59;94655.38;;;-0.86;100.00
12219;BME280;6172;42.646;23.344;2023-02-01T01:47:44;94652.03;;;-0.83;100.00
12219;BME280;6172;42.646;23.344;2023-02-01T01:50:27;94648.66;;;-0.80;100.00
12219;BME280;6172;42.646;23.344;2023-02-01T01:53:00;94655.94;;;-0.92;100.00
12219;BME280;6172;42.646;23.344;2023-02-01T01:55:47;94653.91;;;-0.83;100.00
12219;BME280;6172;42.646;23.344;2023-02-01T02:04:49;94660.53;;;-1.20;100.00
12219;BME280;6172;42.646;23.344;2023-02-01T02:07:38;94654.41;;;-1.21;100.00
12219;BME280;6172;42.646;23.344;2023-02-01T02:10:16;94644.72;;;-1.25;100.00
12219;BME280;6172;42.646;23.344;2023-02-01T02:12:49;94644.09;;;-1.34;100.00
12219;BME280;6172;42.646;23.344;2023-02-01T02:15:24;94651.78;;;-1.33;100.00
12219;BME280;6172;42.646;23.344;2023-02-01T02:18:32;94640.13;;;-1.40;100.00
12219;BME280;6172;42.646;23.344;2023-02-01T02:21:47;94642.41;;;-1.67;100.00
12219;BME280;6172;42.646;23.344;2023-02-01T02:25:25;94636.97;;;-1.70;100.00
12219;BME280;6172;42.646;23.344;2023-02-01T02:31:48;94633.84;;;-1.72;100.00
12219;BME280;6172;42.646;23.344;2023-02-01T02:45:38;94633.91;;;-1.96;100.00
12219;BME280;6172;42.646;23.344;2023-02-01T02:48:34;94634.88;;;-1.89;100.00
12219;BME280;6172;42.646;23.344;2023-02-01T02:54:48;94639.06;;;-1.76;100.00
12219;BME280;6172;42.646;23.344;2023-02-01T02:58:00;94629.41;;;-1.80;100.00
12219;BME280;6172;42.646;23.344;2023-02-01T03:04:35;94629.50;;;-1.64;100.00
12219;BME280;6172;42.646;23.344;2023-02-01T03:07:54;94639.91;;;-1.47;100.00
12219;BME280;6172;42.646;23.344;2023-02-01T03:10:35;94648.81;;;-1.43;100.00
12219;BME280;6172;42.646;23.344;2023-02-01T03:13:15;94639.94;;;-1.59;100.00
12219;BME280;6172;42.646;23.344;2023-02-01T03:16:03;94638.78;;;-1.46;100.00
12219;BME280;6172;42.646;23.344;2023-02-01T03:18:59;94658.38;;;-1.42;100.00
12219;BME280;6172;42.646;23.344;2023-02-01T03:21:55;94663.03;;;-1.39;100.00
12219;BME280;6172;42.646;23.344;2023-02-01T03:24:32;94650.88;;;-1.37;100.00
12219;BME280;6172;42.646;23.344;2023-02-01T03:27:21;94658.19;;;-1.22;100.00
12219;BME280;6172;42.646;23.344;2023-02-01T03:29:58;94659.69;;;-1.36;100.00
12219;BME280;6172;42.646;23.344;2023-02-01T03:32:51;94661.31;;;-1.20;100.00
12219;BME280;6172;42.646;23.344;2023-02-01T03:35:40;94662.69;;;-1.26;100.00
12219;BME280;6172;42.646;23.344;2023-02-01T03:38:52;94673.94;;;-1.32;100.00
12219;BME280;6172;42.646;23.344;2023-02-01T03:41:47;94664.72;;;-1.35;100.00
12219;BME280;6172;42.646;23.344;2023-02-01T03:44:26;94671.06;;;-1.39;100.00
12219;BME280;6172;42.646;23.344;2023-02-01T03:47:18;94663.25;;;-1.32;100.00
12219;BME280;6172;42.646;23.344;2023-02-01T03:49:52;94651.47;;;-1.43;100.00
12219;BME280;6172;42.646;23.344;2023-02-01T03:52:28;94660.81;;;-1.37;100.00
12219;BME280;6172;42.646;23.344;2023-02-01T03:58:36;94660.94;;;-1.06;100.00
12219;BME280;6172;42.646;23.344;2023-02-01T04:01:33;94638.56;;;-1.41;100.00
12219;BME280;6172;42.646;23.344;2023-02-01T04:04:18;94657.34;;;-1.26;100.00
12219;BME280;6172;42.646;23.344;2023-02-01T04:06:48;94657.81;;;-1.36;100.00
12219;BME280;6172;42.646;23.344;2023-02-01T04:09:17;94642.50;;;-1.23;100.00
12219;BME280;6172;42.646;23.344;2023-02-01T04:12:01;94662.97;;;-1.15;100.00
12219;BME280;6172;42.646;23.344;2023-02-01T04:14:50;94647.63;;;-1.18;100.00
12219;BME280;6172;42.646;23.344;2023-02-01T04:17:36;94639.38;;;-1.25;100.00
12219;BME280;6172;42.646;23.344;2023-02-01T04:20:28;94657.75;;;-1.24;100.00
12219;BME280;6172;42.646;23.344;2023-02-01T04:23:22;94665.09;;;-1.21;100.00
12219;BME280;6172;42.646;23.344;2023-02-01T04:26:10;94653.44;;;-1.28;100.00
12219;BME280;6172;42.646;23.344;2023-02-01T04:28:48;94669.78;;;-1.18;100.00
12219;BME280;6172;42.646;23.344;2023-02-01T04:34:36;94665.84;;;-1.08;100.00
12219;BME280;6172;42.646;23.344;2023-02-01T04:37:13;94664.28;;;-1.09;100.00
12219;BME280;6172;42.646;23.344;2023-02-01T04:40:11;94675.91;;;-1.17;100.00
12219;BME280;6172;42.646;23.344;2023-02-01T04:42:45;94666.53;;;-1.11;100.00
12219;BME280;6172;42.646;23.344;2023-02-01T04:45:37;94662.28;;;-1.12;100.00
12219;BME280;6172;42.646;23.344;2023-02-01T04:48:20;94678.47;;;-0.93;100.00
12219;BME280;6172;42.646;23.344;2023-02-01T04:54:08;94673.38;;;-0.98;100.00
12219;BME280;6172;42.646;23.344;2023-02-01T04:56:51;94672.78;;;-0.92;100.00
12219;BME280;6172;42.646;23.344;2023-02-01T04:59:38;94684.63;;;-0.93;100.00
12219;BME280;6172;42.646;23.344;2023-02-01T05:02:19;94690.59;;;-0.84;100.00
12219;BME280;6172;42.646;23.344;2023-02-01T05:04:54;94695.84;;;-0.87;100.00
12219;BME280;6172;42.646;23.344;2023-02-01T05:07:40;94696.63;;;-0.87;100.00
12219;BME280;6172;42.646;23.344;2023-02-01T05:10:14;94705.69;;;-0.91;100.00
12219;BME280;6172;42.646;23.344;2023-02-01T05:12:55;94700.50;;;-0.84;100.00
12219;BME280;6172;42.646;23.344;2023-02-01T05:15:40;94703.63;;;-0.82;100.00
12219;BME280;6172;42.646;23.344;2023-02-01T05:18:16;94711.59;;;-0.70;100.00
12219;BME280;6172;42.646;23.344;2023-02-01T05:20:58;94708.13;;;-0.71;100.00
12219;BME280;6172;42.646;23.344;2023-02-01T05:23:50;94692.63;;;-0.65;100.00
12219;BME280;6172;42.646;23.344;2023-02-01T05:26:36;94700.31;;;-0.64;100.00
12219;BME280;6172;42.646;23.344;2023-02-01T05:29:15;94701.00;;;-0.67;100.00
12219;BME280;6172;42.646;23.344;2023-02-01T05:31:45;94695.53;;;-0.70;100.00
12219;BME280;6172;42.646;23.344;2023-02-01T05:34:17;94704.00;;;-0.68;100.00
12219;BME280;6172;42.646;23.344;2023-02-01T05:36:51;94705.84;;;-0.57;100.00
12219;BME280;6172;42.646;23.344;2023-02-01T05:39:38;94696.50;;;-0.63;100.00
12219;BME280;6172;42.646;23.344;2023-02-01T05:42:22;94702.53;;;-0.66;100.00
12219;BME280;6172;42.646;23.344;2023-02-01T05:44:49;94691.94;;;-0.62;100.00
12219;BME280;6172;42.646;23.344;2023-02-01T05:47:16;94686.78;;;-0.55;100.00
12219;BME280;6172;42.646;23.344;2023-02-01T05:49:43;94696.78;;;-0.52;100.00
12219;BME280;6172;42.646;23.344;2023-02-01T05:52:10;94706.09;;;-0.46;100.00
12219;BME280;6172;42.646;23.344;2023-02-01T05:54:38;94698.97;;;-0.42;100.00
12219;BME280;6172;42.646;23.344;2023-02-01T05:57:07;94705.94;;;-0.38;100.00
12219;BME280;6172;42.646;23.344;2023-02-01T05:59:39;94697.16;;;-0.38;100.00
12219;BME280;6172;42.646;23.344;2023-02-01T06:02:10;94695.78;;;-0.32;100.00
12219;BME280;6172;42.646;23.344;2023-02-01T06:04:37;94702.97;;;-0.21;100.00
12219;BME280;6172;42.646;23.344;2023-02-01T06:07:04;94710.22;;;-0.21;100.00
12219;BME280;6172;42.646;23.344;2023-02-01T06:09:32;94707.53;;;-0.21;100.00
12219;BME280;6172;42.646;23.344;2023-02-01T06:11:59;94700.28;;;-0.21;100.00
12219;BME280;6172;42.646;23.344;2023-02-01T06:14:27;94695.50;;;-0.27;100.00
12219;BME280;6172;42.646;23.344;2023-02-01T06:16:55;94704.16;;;-0.18;100.00
12219;BME280;6172;42.646;23.344;2023-02-01T06:19:22;94712.63;;;-0.16;100.00
12219;BME280;6172;42.646;23.344;2023-02-01T06:21:49;94712.28;;;-0.15;100.00
12219;BME280;6172;42.646;23.344;2023-02-01T06:24:17;94710.81;;;-0.12;100.00
12219;BME280;6172;42.646;23.344;2023-02-01T06:26:50;94713.06;;;0.01;100.00
12219;BME280;6172;42.646;23.344;2023-02-01T06:29:17;94715.16;;;0.08;100.00
12219;BME280;6172;42.646;23.344;2023-02-01T06:31:50;94713.56;;;0.07;100.00
12219;BME280;6172;42.646;23.344;2023-02-01T06:34:19;94717.03;;;-0.08;100.00
12219;BME280;6172;42.646;23.344;2023-02-01T06:36:49;94716.34;;;-0.05;100.00
12219;BME280;6172;42.646;23.344;2023-02-01T06:39:16;94698.97;;;0.04;100.00
12219;BME280;6172;42.646;23.344;2023-02-01T06:41:46;94708.03;;;-0.00;100.00
12219;BME280;6172;42.646;23.344;2023-02-01T06:44:20;94707.34;;;0.03;100.00
12219;BME280;6172;42.646;23.344;2023-02-01T06:46:48;94706.81;;;0.13;100.00
12219;BME280;6172;42.646;23.344;2023-02-01T06:49:15;94721.97;;;0.21;100.00
12219;BME280;6172;42.646;23.344;2023-02-01T06:51:45;94721.00;;;0.29;100.00
12219;BME280;6172;42.646;23.344;2023-02-01T06:54:12;94731.88;;;0.36;100.00
12219;BME280;6172;42.646;23.344;2023-02-01T06:56:39;94721.84;;;0.33;100.00
12219;BME280;6172;42.646;23.344;2023-02-01T06:59:07;94741.38;;;0.49;100.00
12219;BME280;6172;42.646;23.344;2023-02-01T07:01:34;94739.16;;;0.35;100.00
12219;BME280;6172;42.646;23.344;2023-02-01T07:04:01;94733.38;;;0.33;100.00
12219;BME280;6172;42.646;23.344;2023-02-01T07:06:29;94743.28;;;0.33;100.00
12219;BME280;6172;42.646;23.344;2023-02-01T07:09:00;94724.97;;;0.35;100.00
12219;BME280;6172;42.646;23.344;2023-02-01T07:11:27;94753.94;;;0.45;100.00
12219;BME280;6172;42.646;23.344;2023-02-01T07:13:56;94756.09;;;0.39;100.00
12219;BME280;6172;42.646;23.344;2023-02-01T07:16:25;94744.53;;;0.35;100.00
12219;BME280;6172;42.646;23.344;2023-02-01T07:18:56;94768.03;;;0.42;100.00
12219;BME280;6172;42.646;23.344;2023-02-01T07:21:31;94755.06;;;0.44;100.00
12219;BME280;6172;42.646;23.344;2023-02-01T07:24:00;94754.91;;;0.37;100.00
12219;BME280;6172;42.646;23.344;2023-02-01T07:26:27;94760.44;;;0.44;100.00
12219;BME280;6172;42.646;23.344;2023-02-01T07:28:55;94774.00;;;0.51;100.00
12219;BME280;6172;42.646;23.344;2023-02-01T07:31:23;94761.34;;;0.51;100.00
12219;BME280;6172;42.646;23.344;2023-02-01T07:33:52;94766.09;;;0.58;100.00
12219;BME280;6172;42.646;23.344;2023-02-01T07:36:20;94769.22;;;0.60;100.00
12219;BME280;6172;42.646;23.344;2023-02-01T07:38:47;94773.72;;;0.56;100.00
12219;BME280;6172;42.646;23.344;2023-02-01T07:41:16;94759.88;;;0.69;100.00
12219;BME280;6172;42.646;23.344;2023-02-01T07:43:43;94768.75;;;0.73;100.00
12219;BME280;6172;42.646;23.344;2023-02-01T07:46:11;94768.56;;;0.82;100.00
12219;BME280;6172;42.646;23.344;2023-02-01T07:48:39;94782.41;;;0.84;100.00
12219;BME280;6172;42.646;23.344;2023-02-01T07:51:09;94778.63;;;0.69;100.00
12219;BME280;6172;42.646;23.344;2023-02-01T07:53:37;94779.34;;;0.66;100.00
12219;BME280;6172;42.646;23.344;2023-02-01T07:56:10;94797.47;;;0.89;100.00
12219;BME280;6172;42.646;23.344;2023-02-01T07:58:39;94786.94;;;0.80;100.00
12219;BME280;6172;42.646;23.344;2023-02-01T08:01:10;94794.59;;;0.97;100.00
12219;BME280;6172;42.646;23.344;2023-02-01T08:03:50;94799.25;;;1.00;99.21
12219;BME280;6172;42.646;23.344;2023-02-01T08:06:18;94802.50;;;1.09;97.57
12219;BME280;6172;42.646;23.344;2023-02-01T08:08:46;94801.31;;;1.07;96.71
12219;BME280;6172;42.646;23.344;2023-02-01T08:11:13;94807.47;;;1.07;95.70
12219;BME280;6172;42.646;23.344;2023-02-01T08:13:43;94802.19;;;1.30;94.98
12219;BME280;6172;42.646;23.344;2023-02-01T08:16:11;94803.84;;;1.34;93.61
12219;BME280;6172;42.646;23.344;2023-02-01T08:18:39;94811.84;;;1.15;92.33
12219;BME280;6172;42.646;23.344;2023-02-01T08:21:08;94805.78;;;1.18;93.83
12219;BME280;6172;42.646;23.344;2023-02-01T08:23:36;94781.53;;;1.15;93.35
12219;BME280;6172;42.646;23.344;2023-02-01T08:26:11;94802.09;;;1.26;91.71
12219;BME280;6172;42.646;23.344;2023-02-01T08:28:42;94790.97;;;1.43;90.13
12219;BME280;6172;42.646;23.344;2023-02-01T08:31:12;94806.75;;;1.45;88.29
12219;BME280;6172;42.646;23.344;2023-02-01T08:33:40;94799.88;;;1.66;87.28
12219;BME280;6172;42.646;23.344;2023-02-01T08:36:09;94793.78;;;1.69;87.43
12219;BME280;6172;42.646;23.344;2023-02-01T08:38:38;94800.03;;;1.73;86.28
12219;BME280;6172;42.646;23.344;2023-02-01T08:41:07;94797.28;;;1.92;84.61
12219;BME280;6172;42.646;23.344;2023-02-01T08:43:36;94794.69;;;1.96;83.53
12219;BME280;6172;42.646;23.344;2023-02-01T08:46:06;94790.34;;;2.10;81.66
12219;BME280;6172;42.646;23.344;2023-02-01T08:48:34;94803.44;;;2.12;79.68
12219;BME280;6172;42.646;23.344;2023-02-01T08:51:03;94791.59;;;2.16;78.95
12219;BME280;6172;42.646;23.344;2023-02-01T08:53:30;94793.50;;;2.38;76.26
12219;BME280;6172;42.646;23.344;2023-02-01T08:55:58;94792.03;;;2.41;77.04
12219;BME280;6172;42.646;23.344;2023-02-01T08:58:25;94784.81;;;3.23;76.33
12219;BME280;6172;42.646;23.344;2023-02-01T09:00:53;94779.22;;;3.65;70.49
12219;BME280;6172;42.646;23.344;2023-02-01T09:03:21;94787.09;;;3.80;68.15
12219;BME280;6172;42.646;23.344;2023-02-01T09:05:48;94789.44;;;4.18;66.61
12219;BME280;6172;42.646;23.344;2023-02-01T09:08:16;94778.34;;;4.27;65.63
12219;BME280;6172;42.646;23.344;2023-02-01T09:10:44;94785.88;;;4.11;64.04
12219;BME280;6172;42.646;23.344;2023-02-01T09:13:11;94800.00;;;3.97;63.38
12219;BME280;6172;42.646;23.344;2023-02-01T09:15:37;94792.22;;;3.59;63.74
12219;BME280;6172;42.646;23.344;2023-02-01T09:18:04;94782.53;;;3.55;64.20
12219;BME280;6172;42.646;23.344;2023-02-01T09:20:33;94796.16;;;3.36;65.83
12219;BME280;6172;42.646;23.344;2023-02-01T09:23:01;94808.06;;;3.34;65.72
12219;BME280;6172;42.646;23.344;2023-02-01T09:25:28;94798.13;;;3.39;66.00
12219;BME280;6172;42.646;23.344;2023-02-01T09:27:55;94798.09;;;3.68;65.83
12219;BME280;6172;42.646;23.344;2023-02-01T09:30:22;94797.16;;;4.20;63.71
12219;BME280;6172;42.646;23.344;2023-02-01T09:32:49;94797.66;;;4.32;63.28
12219;BME280;6172;42.646;23.344;2023-02-01T09:35:16;94786.88;;;4.76;61.90
12219;BME280;6172;42.646;23.344;2023-02-01T09:37:44;94780.13;;;5.03;60.71
12219;BME280;6172;42.646;23.344;2023-02-01T09:40:14;94783.13;;;5.52;58.46
12219;BME280;6172;42.646;23.344;2023-02-01T09:42:57;94779.66;;;5.55;56.06
12219;BME280;6172;42.646;23.344;2023-02-01T09:45:30;94780.22;;;5.92;55.76
12219;BME280;6172;42.646;23.344;2023-02-01T09:48:02;94767.88;;;6.05;54.00
12219;BME280;6172;42.646;23.344;2023-02-01T09:50:33;94773.06;;;6.80;52.17
12219;BME280;6172;42.646;23.344;2023-02-01T09:53:09;94764.09;;;7.22;50.95
12219;BME280;6172;42.646;23.344;2023-02-01T09:55:42;94755.16;;;7.42;50.03
12219;BME280;6172;42.646;23.344;2023-02-01T09:58:14;94746.03;;;7.98;48.48
12219;BME280;6172;42.646;23.344;2023-02-01T10:00:50;94748.94;;;8.39;47.04
12219;BME280;6172;42.646;23.344;2023-02-01T10:03:17;94742.78;;;8.24;46.03
12219;BME280;6172;42.646;23.344;2023-02-01T10:08:59;94735.25;;;8.53;45.22
12219;BME280;6172;42.646;23.344;2023-02-01T10:11:35;94739.94;;;8.49;44.90
12219;BME280;6172;42.646;23.344;2023-02-01T10:14:26;94737.44;;;8.72;43.69
12219;BME280;6172;42.646;23.344;2023-02-01T10:17:04;94733.72;;;8.52;43.92
12219;BME280;6172;42.646;23.344;2023-02-01T10:19:44;94719.75;;;8.50;43.91
12219;BME280;6172;42.646;23.344;2023-02-01T10:22:23;94720.03;;;8.04;44.50
12219;BME280;6172;42.646;23.344;2023-02-01T10:24:59;94713.94;;;8.48;44.04
12219;BME280;6172;42.646;23.344;2023-02-01T10:27:33;94718.72;;;8.30;43.90
12219;BME280;6172;42.646;23.344;2023-02-01T10:30:15;94705.38;;;7.91;44.63
12219;BME280;6172;42.646;23.344;2023-02-01T10:32:44;94695.94;;;8.09;43.83
12219;BME280;6172;42.646;23.344;2023-02-01T10:35:23;94705.09;;;8.40;44.65
12219;BME280;6172;42.646;23.344;2023-02-01T10:37:53;94696.63;;;8.24;43.56
12219;BME280;6172;42.646;23.344;2023-02-01T10:40:24;94700.09;;;8.28;42.83
12219;BME280;6172;42.646;23.344;2023-02-01T10:42:53;94691.06;;;8.45;43.35
12219;BME280;6172;42.646;23.344;2023-02-01T10:45:22;94699.25;;;8.42;43.65
12219;BME280;6172;42.646;23.344;2023-02-01T10:47:52;94684.25;;;8.20;43.29
12219;BME280;6172;42.646;23.344;2023-02-01T10:50:32;94697.56;;;8.00;42.93
12219;BME280;6172;42.646;23.344;2023-02-01T10:53:04;94698.19;;;7.49;44.14
12219;BME280;6172;42.646;23.344;2023-02-01T10:55:37;94692.94;;;6.37;46.31
12219;BME280;6172;42.646;23.344;2023-02-01T10:58:07;94691.00;;;6.24;47.25
12219;BME280;6172;42.646;23.344;2023-02-01T11:00:41;94692.50;;;5.90;48.33
12219;BME280;6172;42.646;23.344;2023-02-01T11:03:42;94702.09;;;5.66;48.84
12219;BME280;6172;42.646;23.344;2023-02-01T11:06:17;94707.31;;;5.20;49.69
12219;BME280;6172;42.646;23.344;2023-02-01T11:08:47;94701.06;;;5.06;49.90
12219;BME280;6172;42.646;23.344;2023-02-01T11:11:16;94697.06;;;5.61;50.04
12219;BME280;6172;42.646;23.344;2023-02-01T11:13:43;94680.56;;;6.19;48.91
12219;BME280;6172;42.646;23.344;2023-02-01T11:16:13;94699.13;;;6.20;48.07
12219;BME280;6172;42.646;23.344;2023-02-01T11:18:41;94684.41;;;5.93;48.85
12219;BME280;6172;42.646;23.344;2023-02-01T11:21:09;94693.72;;;6.55;48.46
12219;BME280;6172;42.646;23.344;2023-02-01T11:23:41;94675.91;;;6.86;47.20
12219;BME280;6172;42.646;23.344;2023-02-01T11:26:11;94676.63;;;7.18;46.89
12219;BME280;6172;42.646;23.344;2023-02-01T11:28:46;94665.69;;;7.39;46.33
12219;BME280;6172;42.646;23.344;2023-02-01T11:31:16;94656.06;;;7.27;45.95
12219;BME280;6172;42.646;23.344;2023-02-01T11:33:48;94669.13;;;7.50;45.78
12219;BME280;6172;42.646;23.344;2023-02-01T11:36:18;94662.09;;;7.63;44.61
12219;BME280;6172;42.646;23.344;2023-02-01T11:38:52;94660.47;;;7.76;44.63
12219;BME280;6172;42.646;23.344;2023-02-01T11:41:22;94668.19;;;7.84;44.84
12219;BME280;6172;42.646;23.344;2023-02-01T11:43:55;94662.72;;;7.91;44.60
12219;BME280;6172;42.646;23.344;2023-02-01T11:46:27;94654.06;;;7.45;44.67
12219;BME280;6172;42.646;23.344;2023-02-01T11:48:55;94645.94;;;7.38;44.55
12219;BME280;6172;42.646;23.344;2023-02-01T11:51:35;94653.25;;;7.48;45.22
12219;BME280;6172;42.646;23.344;2023-02-01T11:54:16;94644.44;;;7.30;44.91
12219;BME280;6172;42.646;23.344;2023-02-01T11:56:58;94646.97;;;7.69;44.61
12219;BME280;6172;42.646;23.344;2023-02-01T11:59:54;94636.66;;;7.36;44.91
12219;BME280;6172;42.646;23.344;2023-02-01T12:03:03;94628.84;;;7.55;44.48
12219;BME280;6172;42.646;23.344;2023-02-01T12:05:37;94629.81;;;7.03;45.77
12219;BME280;6172;42.646;23.344;2023-02-01T12:08:39;94625.34;;;7.51;45.52
12219;BME280;6172;42.646;23.344;2023-02-01T12:11:52;94634.72;;;7.33;45.10
12219;BME280;6172;42.646;23.344;2023-02-01T12:14:31;94627.28;;;7.54;45.71
12219;BME280;6172;42.646;23.344;2023-02-01T12:17:22;94631.72;;;7.13;45.64
12219;BME280;6172;42.646;23.344;2023-02-01T12:20:09;94626.94;;;7.45;45.38
12219;BME280;6172;42.646;23.344;2023-02-01T12:22:49;94628.59;;;7.18;45.68
12219;BME280;6172;42.646;23.344;2023-02-01T12:25:30;94627.66;;;7.56;45.33
12219;BME280;6172;42.646;23.344;2023-02-01T12:28:08;94618.53;;;7.22;45.48
12219;BME280;6172;42.646;23.344;2023-02-01T12:31:05;94622.78;;;7.23;45.67
12219;BME280;6172;42.646;23.344;2023-02-01T12:33:48;94618.97;;;7.00;46.15
12219;BME280;6172;42.646;23.344;2023-02-01T12:36:25;94613.66;;;6.72;46.12
12219;BME280;6172;42.646;23.344;2023-02-01T12:39:02;94621.78;;;6.72;47.11
12219;BME280;6172;42.646;23.344;2023-02-01T12:41:48;94622.50;;;6.93;46.30
12219;BME280;6172;42.646;23.344;2023-02-01T12:44:25;94627.38;;;7.33;46.11
12219;BME280;6172;42.646;23.344;2023-02-01T12:46:57;94633.34;;;6.86;46.57
12219;BME280;6172;42.646;23.344;2023-02-01T12:49:33;94651.53;;;6.75;46.70
12219;BME280;6172;42.646;23.344;2023-02-01T12:52:06;94634.03;;;7.15;46.52
12219;BME280;6172;42.646;23.344;2023-02-01T12:54:41;94631.00;;;6.99;46.27
12219;BME280;6172;42.646;23.344;2023-02-01T12:57:14;94647.28;;;6.92;45.60
12219;BME280;6172;42.646;23.344;2023-02-01T12:59:47;94638.03;;;6.72;45.94
12219;BME280;6172;42.646;23.344;2023-02-01T13:02:21;94638.00;;;6.86;46.06
12219;BME280;6172;42.646;23.344;2023-02-01T13:04:58;94637.25;;;6.40;46.35
12219;BME280;6172;42.646;23.344;2023-02-01T13:07:32;94634.16;;;6.31;47.22
12219;BME280;6172;42.646;23.344;2023-02-01T13:10:07;94634.94;;;6.63;46.78
12219;BME280;6172;42.646;23.344;2023-02-01T13:12:44;94621.78;;;6.61;47.05
12219;BME280;6172;42.646;23.344;2023-02-01T13:15:16;94625.63;;;6.71;47.01
12219;BME280;6172;42.646;23.344;2023-02-01T13:17:46;94625.28;;;6.58;46.29
12219;BME280;6172;42.646;23.344;2023-02-01T13:20:22;94621.03;;;6.12;47.04
12219;BME280;6172;42.646;23.344;2023-02-01T13:22:54;94627.97;;;6.16;46.77
12219;BME280;6172;42.646;23.344;2023-02-01T13:25:30;94620.63;;;6.34;47.15
12219;BME280;6172;42.646;23.344;2023-02-01T13:28:01;94620.63;;;5.99;47.32
12219;BME280;6172;42.646;23.344;2023-02-01T13:30:39;94617.16;;;6.09;47.42
12219;BME280;6172;42.646;23.344;2023-02-01T13:33:32;94624.13;;;6.03;46.54
12219;BME280;6172;42.646;23.344;2023-02-01T13:36:18;94633.38;;;5.95;47.31
12219;BME280;6172;42.646;23.344;2023-02-01T13:39:18;94627.19;;;5.70;48.04
12219;BME280;6172;42.646;23.344;2023-02-01T13:41:54;94629.06;;;5.55;46.24
12219;BME280;6172;42.646;23.344;2023-02-01T13:44:28;94624.78;;;5.40;46.74
12219;BME280;6172;42.646;23.344;2023-02-01T13:46:59;94620.84;;;5.13;47.47
12219;BME280;6172;42.646;23.344;2023-02-01T13:49:29;94620.13;;;5.27;47.67
12219;BME280;6172;42.646;23.344;2023-02-01T13:51:59;94626.84;;;4.79;48.01
12219;BME280;6172;42.646;23.344;2023-02-01T13:54:29;94619.81;;;4.64;48.61
12219;BME280;6172;42.646;23.344;2023-02-01T13:56:58;94622.94;;;4.73;49.22
12219;BME280;6172;42.646;23.344;2023-02-01T13:59:52;94625.00;;;4.93;49.08
12219;BME280;6172;42.646;23.344;2023-02-01T14:02:47;94626.16;;;4.96;48.99
12219;BME280;6172;42.646;23.344;2023-02-01T14:08:24;94632.72;;;4.98;49.43
12219;BME280;6172;42.646;23.344;2023-02-01T14:11:05;94629.66;;;5.07;49.39
12219;BME280;6172;42.646;23.344;2023-02-01T14:13:34;94622.72;;;5.06;49.82
12219;BME280;6172;42.646;23.344;2023-02-01T14:16:13;94620.00;;;4.99;49.52
12219;BME280;6172;42.646;23.344;2023-02-01T14:18:59;94629.56;;;4.86;49.92
12219;BME280;6172;42.646;23.344;2023-02-01T14:21:29;94604.84;;;4.73;50.46
12219;BME280;6172;42.646;23.344;2023-02-01T14:24:00;94602.06;;;4.59;50.96
12219;BME280;6172;42.646;23.344;2023-02-01T14:26:43;94603.63;;;4.64;51.15
12219;BME280;6172;42.646;23.344;2023-02-01T14:29:30;94598.31;;;4.78;50.50
12219;BME280;6172;42.646;23.344;2023-02-01T14:32:03;94599.41;;;4.70;50.82
12219;BME280;6172;42.646;23.344;2023-02-01T14:34:37;94596.19;;;4.43;51.48
12219;BME280;6172;42.646;23.344;2023-02-01T14:37:10;94588.06;;;4.36;52.08
12219;BME280;6172;42.646;23.344;2023-02-01T14:39:52;94587.28;;;4.36;52.59